createdAt,value
2022-08-03T00:01:28.733Z,98563.90
2022-08-03T00:03:55.687Z,98561.89
2022-08-03T00:06:22.528Z,98561.33
2022-08-03T00:08:49.270Z,98563.92
2022-08-03T00:11:16.322Z,98562.20
2022-08-03T00:13:43.069Z,98559.27
2022-08-03T00:16:10.842Z,98557.75
2022-08-03T00:18:38.092Z,98562.07
2022-08-03T00:21:05.641Z,98562.67
2022-08-03T00:23:51.377Z,98566.60
2022-08-03T00:26:19.166Z,98569.73
2022-08-03T00:28:45.873Z,98568.41
2022-08-03T00:31:13.574Z,98566.79
2022-08-03T00:33:58.199Z,98564.48
2022-08-03T00:36:26.904Z,98564.19
2022-08-03T00:38:53.547Z,98562.58
2022-08-03T00:41:20.330Z,98562.06
2022-08-03T00:43:47.030Z,98561.61
2022-08-03T00:46:16.451Z,98566.65
2022-08-03T00:48:47.485Z,98562.95
2022-08-03T00:51:14.535Z,98568.67
2022-08-03T00:53:41.346Z,98567.27
2022-08-03T00:56:08.023Z,98570.41
2022-08-03T00:58:34.843Z,98570.18
2022-08-03T01:01:01.901Z,98576.40
2022-08-03T01:03:28.631Z,98574.23
2022-08-03T01:06:07.570Z,98574.33
2022-08-03T01:08:57.292Z,98574.94
2022-08-03T01:11:59.778Z,98578.13
2022-08-03T01:14:32.566Z,98579.15
2022-08-03T01:17:10.445Z,98578.48
2022-08-03T01:19:43.768Z,98580.80
2022-08-03T01:22:35.504Z,98581.56
2022-08-03T01:25:40.188Z,98584.60
2022-08-03T01:28:38.785Z,98585.57
2022-08-03T01:31:10.109Z,98582.00
2022-08-03T01:33:42.455Z,98583.48
2022-08-03T01:36:19.659Z,98581.23
2022-08-03T01:38:54.780Z,98580.81
2022-08-03T01:41:25.127Z,98580.89
2022-08-03T01:44:28.303Z,98574.83
2022-08-03T01:46:47.561Z,98571.59
2022-08-03T01:49:16.857Z,98573.42
2022-08-03T01:52:02.751Z,98575.13
2022-08-03T01:54:52.887Z,98572.06
2022-08-03T01:57:21.179Z,98568.66
2022-08-03T01:59:50.778Z,98566.83
2022-08-03T02:02:32.679Z,98562.69
2022-08-03T02:05:03.192Z,98560.73
2022-08-03T02:07:32.100Z,98562.42
2022-08-03T02:10:01.339Z,98560.52
2022-08-03T02:12:30.023Z,98559.26
2022-08-03T02:14:57.647Z,98560.05
2022-08-03T02:17:39.335Z,98556.20
2022-08-03T02:20:09.924Z,98557.96
2022-08-03T02:22:40.031Z,98555.59
2022-08-03T02:25:09.157Z,98552.08
2022-08-03T02:27:43.178Z,98554.77
2022-08-03T02:30:12.552Z,98554.52
2022-08-03T02:32:41.240Z,98559.45
2022-08-03T02:35:13.198Z,98557.72
2022-08-03T02:37:49.833Z,98552.65
2022-08-03T02:40:19.197Z,98555.65
2022-08-03T02:42:48.613Z,98556.46
2022-08-03T02:45:18.379Z,98558.21
2022-08-03T02:47:54.241Z,98560.23
2022-08-03T02:50:23.650Z,98563.36
2022-08-03T02:52:52.287Z,98560.11
2022-08-03T02:55:21.989Z,98560.14
2022-08-03T02:57:50.328Z,98565.66
2022-08-03T03:00:27.309Z,98566.68
2022-08-03T03:02:58.608Z,98561.95
2022-08-03T03:05:53.693Z,98567.31
2022-08-03T03:08:17.634Z,98574.27
2022-08-03T03:10:47.072Z,98576.91
2022-08-03T03:13:19.373Z,98576.23
2022-08-03T03:15:47.794Z,98577.79
2022-08-03T03:18:21.725Z,98577.98
2022-08-03T03:20:49.771Z,98578.90
2022-08-03T03:23:17.558Z,98574.47
2022-08-03T03:25:45.375Z,98576.41
2022-08-03T03:28:12.450Z,98574.20
2022-08-03T03:30:39.300Z,98575.08
2022-08-03T03:33:06.038Z,98575.83
2022-08-03T03:35:38.749Z,98577.12
2022-08-03T03:38:07.287Z,98577.64
2022-08-03T03:40:36.013Z,98578.90
2022-08-03T03:43:07.027Z,98581.00
2022-08-03T03:45:35.431Z,98582.17
2022-08-03T03:48:04.618Z,98583.13
2022-08-03T03:50:33.234Z,98587.08
2022-08-03T03:52:59.867Z,98590.27
2022-08-03T03:55:26.626Z,98587.67
2022-08-03T03:57:53.374Z,98587.92
2022-08-03T04:00:20.258Z,98591.34
2022-08-03T04:02:47.918Z,98590.73
2022-08-03T04:05:15.524Z,98588.31
2022-08-03T04:08:10.770Z,98591.53
2022-08-03T04:10:42.443Z,98591.00
2022-08-03T04:13:12.875Z,98590.17
2022-08-03T04:15:41.466Z,98590.47
2022-08-03T04:18:12.538Z,98593.58
2022-08-03T04:20:42.753Z,98595.22
2022-08-03T04:23:13.631Z,98596.83
2022-08-03T04:25:43.966Z,98598.77
2022-08-03T04:28:30.425Z,98601.27
2022-08-03T04:31:01.494Z,98604.08
2022-08-03T04:33:32.372Z,98600.30
2022-08-03T04:36:03.417Z,98603.89
2022-08-03T04:38:36.394Z,98608.61
2022-08-03T04:41:03.793Z,98609.09
2022-08-03T04:43:33.604Z,98611.92
2022-08-03T04:46:01.961Z,98613.79
2022-08-03T04:48:29.155Z,98612.30
2022-08-03T04:50:55.982Z,98612.88
2022-08-03T04:53:22.779Z,98616.32
2022-08-03T04:55:50.213Z,98617.17
2022-08-03T04:58:16.996Z,98615.67
2022-08-03T05:00:43.914Z,98613.46
2022-08-03T05:03:20.455Z,98615.55
2022-08-03T05:06:01.575Z,98615.45
2022-08-03T05:08:29.507Z,98611.50
2022-08-03T05:10:59.045Z,98611.44
2022-08-03T05:13:26.510Z,98607.55
2022-08-03T05:15:53.357Z,98607.73
2022-08-03T05:18:20.303Z,98611.35
2022-08-03T05:20:47.031Z,98611.00
2022-08-03T05:23:13.694Z,98608.88
2022-08-03T05:25:40.328Z,98610.77
2022-08-03T05:28:16.614Z,98615.27
2022-08-03T05:30:43.346Z,98618.69
2022-08-03T05:33:09.893Z,98615.82
2022-08-03T05:36:00.709Z,98615.08
2022-08-03T05:38:33.128Z,98616.89
2022-08-03T05:41:23.495Z,98617.04
2022-08-03T05:43:53.195Z,98614.35
2022-08-03T05:46:19.918Z,98608.25
2022-08-03T05:48:46.876Z,98613.92
2022-08-03T05:51:16.591Z,98613.30
2022-08-03T05:53:43.836Z,98613.45
2022-08-03T05:56:13.819Z,98614.52
2022-08-03T05:58:42.394Z,98616.89
2022-08-03T06:01:09.229Z,98618.04
2022-08-03T06:03:35.879Z,98616.89
2022-08-03T06:06:02.418Z,98619.70
2022-08-03T06:08:28.931Z,98614.73
2022-08-03T06:10:55.685Z,98618.60
2022-08-03T06:13:22.431Z,98618.58
2022-08-03T06:15:49.187Z,98622.63
2022-08-03T06:18:15.947Z,98620.86
2022-08-03T06:20:42.520Z,98621.02
2022-08-03T06:23:16.280Z,98619.67
2022-08-03T06:25:44.891Z,98619.47
2022-08-03T06:28:23.545Z,98616.96
2022-08-03T06:30:58.843Z,98619.38
2022-08-03T06:33:25.490Z,98624.61
2022-08-03T06:36:12.214Z,98621.48
2022-08-03T06:38:39.134Z,98621.66
2022-08-03T06:41:05.984Z,98616.51
2022-08-03T06:43:35.769Z,98613.81
2022-08-03T06:46:02.542Z,98612.27
2022-08-03T06:48:30.110Z,98617.02
2022-08-03T06:50:56.757Z,98614.77
2022-08-03T06:53:23.497Z,98614.80
2022-08-03T06:55:54.400Z,98611.24
2022-08-03T06:58:22.558Z,98611.06
2022-08-03T07:00:49.705Z,98610.89
2022-08-03T07:03:16.831Z,98611.66
2022-08-03T07:05:44.131Z,98611.69
2022-08-03T07:08:10.933Z,98613.60
2022-08-03T07:10:37.616Z,98608.16
2022-08-03T07:13:05.146Z,98608.69
2022-08-03T07:15:38.264Z,98604.91
2022-08-03T07:18:29.128Z,98603.84
2022-08-03T07:20:57.969Z,98603.21
2022-08-03T07:23:24.958Z,98603.15
2022-08-03T07:25:51.874Z,98600.85
2022-08-03T07:28:18.621Z,98601.05
2022-08-03T07:30:45.336Z,98600.42
2022-08-03T07:33:12.083Z,98601.64
2022-08-03T07:35:39.235Z,98599.13
2022-08-03T07:38:05.876Z,98604.60
2022-08-03T07:40:32.811Z,98601.90
2022-08-03T07:43:00.319Z,98602.42
2022-08-03T07:45:27.109Z,98603.95
2022-08-03T07:47:54.328Z,98603.77
2022-08-03T07:50:22.531Z,98606.13
2022-08-03T07:52:50.312Z,98606.33
2022-08-03T07:55:22.686Z,98605.13
2022-08-03T07:58:10.262Z,98602.16
2022-08-03T08:00:37.105Z,98601.21
2022-08-03T08:03:05.066Z,98600.50
2022-08-03T08:05:32.315Z,98603.89
2022-08-03T08:07:59.230Z,98604.41
2022-08-03T08:10:25.807Z,98603.14
2022-08-03T08:12:52.928Z,98603.44
2022-08-03T08:15:19.885Z,98603.74
2022-08-03T08:17:52.613Z,98603.07
2022-08-03T08:20:30.520Z,98606.05
2022-08-03T08:23:01.330Z,98605.62
2022-08-03T08:25:29.543Z,98608.28
2022-08-03T08:28:29.586Z,98606.89
2022-08-03T08:30:42.945Z,98606.29
2022-08-03T08:33:15.707Z,98606.13
2022-08-03T08:35:51.258Z,98604.64
2022-08-03T08:38:17.907Z,98602.86
2022-08-03T08:40:44.520Z,98603.84
2022-08-03T08:43:11.268Z,98603.70
2022-08-03T08:45:38.012Z,98603.80
2022-08-03T08:48:08.354Z,98603.28
2022-08-03T08:50:37.939Z,98599.95
2022-08-03T08:53:18.383Z,98600.94
2022-08-03T08:55:58.255Z,98593.27
2022-08-03T08:58:30.431Z,98591.29
2022-08-03T09:00:57.368Z,98593.98
2022-08-03T09:03:29.593Z,98596.80
2022-08-03T09:06:00.005Z,98590.70
2022-08-03T09:08:26.894Z,98584.95
2022-08-03T09:10:53.588Z,98586.33
2022-08-03T09:13:20.232Z,98586.37
2022-08-03T09:16:00.998Z,98586.55
2022-08-03T09:18:32.735Z,98582.30
2022-08-03T09:21:35.121Z,98580.87
2022-08-03T09:24:05.350Z,98577.27
2022-08-03T09:26:37.961Z,98576.13
2022-08-03T09:29:14.593Z,98579.10
2022-08-03T09:31:44.629Z,98579.99
2022-08-03T09:34:13.897Z,98578.14
2022-08-03T09:36:46.633Z,98575.31
2022-08-03T09:39:17.790Z,98573.75
2022-08-03T09:41:47.574Z,98573.54
2022-08-03T09:44:24.488Z,98573.47
2022-08-03T09:46:55.042Z,98569.07
2022-08-03T09:49:22.270Z,98566.02
2022-08-03T09:52:30.070Z,98567.42
2022-08-03T09:54:42.320Z,98568.93
2022-08-03T09:57:20.013Z,98574.35
2022-08-03T09:59:46.858Z,98571.16
2022-08-03T10:02:27.721Z,98566.40
2022-08-03T10:04:54.696Z,98565.63
2022-08-03T10:07:23.250Z,98568.14
2022-08-03T10:10:28.863Z,98565.58
2022-08-03T10:12:46.437Z,98558.97
2022-08-03T10:16:21.429Z,98561.81
2022-08-03T10:17:59.552Z,98561.19
2022-08-03T10:20:26.520Z,98560.77
2022-08-03T10:22:53.617Z,98559.31
2022-08-03T10:25:20.532Z,98554.79
2022-08-03T10:27:51.067Z,98550.66
2022-08-03T10:30:18.043Z,98552.63
2022-08-03T10:32:51.658Z,98547.67
2022-08-03T10:35:21.868Z,98548.48
2022-08-03T10:37:56.952Z,98547.81
2022-08-03T10:40:47.681Z,98543.50
2022-08-03T10:43:21.995Z,98544.46
2022-08-03T10:45:49.182Z,98547.70
2022-08-03T10:48:17.605Z,98547.76
2022-08-03T10:50:44.818Z,98540.16
2022-08-03T10:53:11.569Z,98543.88
2022-08-03T10:55:43.812Z,98549.64
2022-08-03T10:58:12.534Z,98544.72
2022-08-03T11:00:50.051Z,98542.17
2022-08-03T11:03:17.763Z,98540.55
2022-08-03T11:05:48.738Z,98543.39
2022-08-03T11:08:26.343Z,98539.09
2022-08-03T11:10:59.063Z,98537.35
2022-08-03T11:13:27.738Z,98536.11
2022-08-03T11:15:59.981Z,98536.58
2022-08-03T11:18:29.905Z,98533.23
2022-08-03T11:20:59.289Z,98529.25
2022-08-03T11:24:05.126Z,98527.48
2022-08-03T11:26:34.091Z,98524.88
2022-08-03T11:29:31.838Z,98522.90
2022-08-03T11:31:58.783Z,98524.45
2022-08-03T11:34:26.439Z,98526.27
2022-08-03T11:37:29.972Z,98521.69
2022-08-03T11:40:00.083Z,98515.74
2022-08-03T11:42:26.618Z,98515.50
2022-08-03T11:44:56.020Z,98520.30
2022-08-03T11:47:24.220Z,98515.29
2022-08-03T11:49:54.070Z,98513.52
2022-08-03T11:52:26.750Z,98513.40
2022-08-03T11:54:57.189Z,98514.64
2022-08-03T11:59:10.956Z,98510.70
2022-08-03T12:00:30.788Z,98513.73
2022-08-03T12:03:07.867Z,98511.05
2022-08-03T12:05:35.251Z,98510.07
2022-08-03T12:08:03.952Z,98507.46
2022-08-03T12:10:33.838Z,98504.11
2022-08-03T12:13:02.740Z,98503.18
2022-08-03T12:15:32.013Z,98507.61
2022-08-03T12:17:58.683Z,98500.79
2022-08-03T12:20:34.689Z,98498.71
2022-08-03T12:23:04.164Z,98498.35
2022-08-03T12:25:39.872Z,98501.42
2022-08-03T12:28:36.930Z,98497.33
2022-08-03T12:31:08.584Z,98494.33
2022-08-03T12:33:56.883Z,98494.47
2022-08-03T12:36:23.763Z,98497.04
2022-08-03T12:39:02.967Z,98493.65
2022-08-03T12:41:35.086Z,98491.94
2022-08-03T12:44:03.652Z,98487.11
2022-08-03T12:46:47.002Z,98491.71
2022-08-03T12:49:16.418Z,98491.02
2022-08-03T12:51:43.039Z,98489.34
2022-08-03T12:54:16.722Z,98488.77
2022-08-03T12:57:03.552Z,98493.42
2022-08-03T12:59:35.395Z,98490.41
2022-08-03T13:02:16.797Z,98499.29
2022-08-03T13:04:45.871Z,98497.45
2022-08-03T13:07:17.966Z,98493.59
2022-08-03T13:09:52.191Z,98493.27
2022-08-03T13:12:21.111Z,98493.46
2022-08-03T13:14:50.523Z,98489.81
2022-08-03T13:17:17.951Z,98489.78
2022-08-03T13:19:46.202Z,98484.62
2022-08-03T13:22:14.912Z,98484.27
2022-08-03T13:24:42.800Z,98476.23
2022-08-03T13:28:01.936Z,98489.52
2022-08-03T13:29:56.668Z,98488.46
2022-08-03T13:32:24.023Z,98492.58
2022-08-03T13:34:50.668Z,98496.78
2022-08-03T13:37:17.512Z,98492.44
2022-08-03T13:39:57.645Z,98487.89
2022-08-03T13:42:30.567Z,98487.30
2022-08-03T13:44:57.237Z,98489.43
2022-08-03T13:47:24.195Z,98489.96
2022-08-03T13:50:00.385Z,98488.55
2022-08-03T13:52:30.934Z,98483.05
2022-08-03T13:54:57.606Z,98486.82
2022-08-03T13:58:03.233Z,98484.94
2022-08-03T14:00:11.781Z,98485.25
2022-08-03T14:02:38.604Z,98485.50
2022-08-03T14:05:05.762Z,98480.31
2022-08-03T14:07:32.563Z,98481.15
2022-08-03T14:09:59.816Z,98481.29
2022-08-03T14:12:26.470Z,98479.55
2022-08-03T14:14:53.065Z,98479.09
2022-08-03T14:17:20.538Z,98474.23
2022-08-03T14:19:53.503Z,98476.58
2022-08-03T14:22:21.568Z,98471.72
2022-08-03T14:24:48.476Z,98473.91
2022-08-03T14:27:16.558Z,98466.38
2022-08-03T14:29:43.588Z,98468.42
2022-08-03T14:32:13.172Z,98465.77
2022-08-03T14:34:40.565Z,98466.54
2022-08-03T14:37:07.410Z,98462.95
2022-08-03T14:42:20.772Z,98456.98
2022-08-03T14:44:47.992Z,98455.52
2022-08-03T14:47:14.735Z,98456.89
2022-08-03T14:50:36.207Z,98457.65
2022-08-03T14:52:28.413Z,98450.60
2022-08-03T14:54:55.021Z,98454.90
2022-08-03T14:57:21.884Z,98451.16
2022-08-03T14:59:55.840Z,98455.06
2022-08-03T15:02:25.213Z,98449.67
2022-08-03T15:04:52.631Z,98455.38
2022-08-03T15:07:19.458Z,98454.50
2022-08-03T15:09:46.929Z,98459.11
2022-08-03T15:12:13.563Z,98458.07
2022-08-03T15:14:40.351Z,98453.64
2022-08-03T15:17:07.871Z,98453.06
2022-08-03T15:20:02.841Z,98448.06
2022-08-03T15:22:24.879Z,98444.48
2022-08-03T15:24:52.530Z,98437.80
2022-08-03T15:27:19.355Z,98442.14
2022-08-03T15:30:09.659Z,98435.75
2022-08-03T15:32:36.126Z,98435.79
2022-08-03T15:35:02.773Z,98435.53
2022-08-03T15:37:29.407Z,98435.33
2022-08-03T15:40:00.119Z,98433.60
2022-08-03T15:42:32.601Z,98429.10
2022-08-03T15:44:59.880Z,98433.55
2022-08-03T15:47:27.127Z,98432.34
2022-08-03T15:49:53.785Z,98432.98
2022-08-03T15:52:20.426Z,98428.73
2022-08-03T15:54:47.030Z,98427.04
2022-08-03T15:57:13.605Z,98428.05
2022-08-03T15:59:40.222Z,98424.89
2022-08-03T16:02:06.749Z,98424.23
2022-08-03T16:04:33.509Z,98422.77
2022-08-03T16:07:00.152Z,98420.27
2022-08-03T16:09:42.023Z,98418.72
2022-08-03T16:12:11.880Z,98421.43
2022-08-03T16:14:51.970Z,98415.01
2022-08-03T16:17:20.844Z,98414.00
2022-08-03T16:19:47.702Z,98414.78
2022-08-03T16:22:14.667Z,98412.92
2022-08-03T16:24:41.478Z,98408.76
2022-08-03T16:27:17.383Z,98409.97
2022-08-03T16:29:55.675Z,98408.09
2022-08-03T16:32:22.288Z,98405.47
2022-08-03T16:34:49.039Z,98403.45
2022-08-03T16:37:37.697Z,98401.24
2022-08-03T16:40:03.935Z,98403.29
2022-08-03T16:42:30.705Z,98406.17
2022-08-03T16:44:57.316Z,98404.05
2022-08-03T16:47:24.034Z,98405.92
2022-08-03T16:49:55.252Z,98410.23
2022-08-03T16:52:24.391Z,98412.08
2022-08-03T16:54:53.276Z,98413.36
2022-08-03T16:57:55.787Z,98409.94
2022-08-03T17:00:10.219Z,98410.32
2022-08-03T17:02:37.897Z,98416.09
2022-08-03T17:05:05.432Z,98409.98
2022-08-03T17:07:32.221Z,98415.29
2022-08-03T17:10:01.206Z,98417.69
2022-08-03T17:12:28.195Z,98419.77
2022-08-03T17:14:56.834Z,98422.84
2022-08-03T17:17:30.338Z,98423.13
2022-08-03T17:20:15.863Z,98421.69
2022-08-03T17:22:55.524Z,98423.22
2022-08-03T17:26:02.612Z,98427.71
2022-08-03T17:28:49.248Z,98426.71
2022-08-03T17:30:56.844Z,98433.72
2022-08-03T17:33:35.409Z,98434.73
2022-08-03T17:36:02.502Z,98443.20
2022-08-03T17:38:38.077Z,98441.63
2022-08-03T17:41:10.787Z,98448.58
2022-08-03T17:44:13.226Z,98448.33
2022-08-03T17:46:27.449Z,98452.39
2022-08-03T17:48:54.102Z,98452.08
2022-08-03T17:51:30.134Z,98454.17
2022-08-03T17:54:18.649Z,98460.41
2022-08-03T17:56:46.537Z,98460.15
2022-08-03T17:59:52.181Z,98466.67
2022-08-03T18:02:59.175Z,98468.08
2022-08-03T18:06:11.533Z,98468.38
2022-08-03T18:08:28.769Z,98470.52
2022-08-03T18:11:03.444Z,98471.39
2022-08-03T18:13:44.680Z,98475.06
2022-08-03T18:16:43.161Z,98477.00
2022-08-03T18:19:13.661Z,98475.28
2022-08-03T18:22:03.107Z,98477.70
2022-08-03T18:24:30.352Z,98480.85
2022-08-03T18:26:59.067Z,98486.97
2022-08-03T18:29:29.918Z,98491.30
2022-08-03T18:32:03.901Z,98491.56
2022-08-03T18:34:34.367Z,98495.35
2022-08-03T18:37:07.379Z,98498.66
2022-08-03T18:39:39.091Z,98503.17
2022-08-03T18:42:19.678Z,98502.65
2022-08-03T18:44:54.148Z,98506.32
2022-08-03T18:47:50.916Z,98507.43
2022-08-03T18:50:39.071Z,98508.48
2022-08-03T18:53:15.729Z,98512.55
2022-08-03T18:56:01.555Z,98515.89
2022-08-03T18:58:41.226Z,98515.64
2022-08-03T19:01:15.190Z,98518.38
2022-08-03T19:04:05.586Z,98521.98
2022-08-03T19:06:38.711Z,98526.23
2022-08-03T19:09:07.448Z,98529.35
2022-08-03T19:12:14.535Z,98530.59
2022-08-03T19:15:01.557Z,98534.83
2022-08-03T19:17:33.492Z,98533.38
2022-08-03T19:20:05.286Z,98533.22
2022-08-03T19:22:33.461Z,98534.64
2022-08-03T19:25:01.619Z,98538.67
2022-08-03T19:27:30.956Z,98537.15
2022-08-03T19:30:03.972Z,98540.86
2022-08-03T19:32:33.435Z,98541.08
2022-08-03T19:35:03.465Z,98541.14
2022-08-03T19:37:39.673Z,98542.73
2022-08-03T19:40:10.783Z,98542.88
2022-08-03T19:42:44.732Z,98546.11
2022-08-03T19:45:15.544Z,98545.14
2022-08-03T19:47:52.828Z,98545.08
2022-08-03T19:50:20.695Z,98543.85
2022-08-03T19:52:49.476Z,98548.47
2022-08-03T19:55:17.533Z,98544.35
2022-08-03T19:57:48.099Z,98549.20
2022-08-03T20:00:17.462Z,98548.85
2022-08-03T20:02:45.541Z,98547.71
2022-08-03T20:05:15.253Z,98548.50
2022-08-03T20:07:47.764Z,98554.42
2022-08-03T20:10:15.527Z,98551.52
2022-08-03T20:12:43.689Z,98547.20
2022-08-03T20:15:10.379Z,98550.44
2022-08-03T20:17:56.125Z,98556.14
2022-08-03T20:20:31.700Z,98559.02
2022-08-03T20:23:00.831Z,98555.83
2022-08-03T20:25:38.612Z,98555.25
2022-08-03T20:28:15.143Z,98553.05
2022-08-03T20:30:44.302Z,98552.77
2022-08-03T20:33:18.310Z,98551.36
2022-08-03T20:36:03.060Z,98552.33
2022-08-03T20:38:29.672Z,98550.31
2022-08-03T20:40:56.856Z,98549.77
2022-08-03T20:43:26.057Z,98554.64
2022-08-03T20:48:43.213Z,98555.65
2022-08-03T20:51:20.142Z,98558.91
2022-08-03T20:54:22.492Z,98558.90
2022-08-03T20:56:51.778Z,98558.15
2022-08-03T20:59:19.538Z,98565.22
2022-08-03T21:01:46.831Z,98561.29
2022-08-03T21:04:13.952Z,98560.89
2022-08-03T21:06:55.333Z,98563.11
2022-08-03T21:12:17.818Z,98564.65
2022-08-03T21:13:08.101Z,98567.55
2022-08-03T21:13:12.319Z,98553.94
2022-08-03T21:15:06.897Z,98561.77
2022-08-03T21:17:40.754Z,98562.80
2022-08-03T21:20:10.795Z,98563.57
2022-08-03T21:22:39.285Z,98568.07
2022-08-03T21:25:08.150Z,98567.10
2022-08-03T21:27:36.675Z,98567.27
2022-08-03T21:30:08.865Z,98570.50
2022-08-03T21:32:36.330Z,98571.70
2022-08-03T21:35:03.091Z,98573.19
2022-08-03T21:37:29.609Z,98574.70
2022-08-03T21:39:56.668Z,98579.82
2022-08-03T21:42:23.721Z,98580.60
2022-08-03T21:44:52.178Z,98581.56
2022-08-03T21:47:22.198Z,98586.36
2022-08-03T21:50:06.658Z,98584.86
2022-08-03T21:52:47.342Z,98585.54
2022-08-03T21:55:20.332Z,98587.36
2022-08-03T21:57:51.889Z,98587.73
2022-08-03T22:00:22.132Z,98589.16
2022-08-03T22:02:54.475Z,98587.86
2022-08-03T22:05:42.441Z,98587.14
2022-08-03T22:08:10.091Z,98588.41
2022-08-03T22:10:37.150Z,98586.27
2022-08-03T22:13:04.130Z,98588.92
2022-08-03T22:15:32.383Z,98593.64
2022-08-03T22:18:00.048Z,98591.77
2022-08-03T22:20:26.726Z,98589.16
2022-08-03T22:22:56.788Z,98590.11
2022-08-03T22:25:30.522Z,98590.45
2022-08-03T22:28:00.090Z,98586.98
2022-08-03T22:30:26.959Z,98592.04
2022-08-03T22:32:54.980Z,98596.26
2022-08-03T22:35:25.392Z,98598.30
2022-08-03T22:37:54.573Z,98597.05
2022-08-03T22:40:22.048Z,98596.52
2022-08-03T22:42:49.313Z,98599.55
2022-08-03T22:46:05.897Z,98595.58
2022-08-03T22:48:07.484Z,98596.06
2022-08-03T22:50:34.852Z,98592.75
2022-08-03T22:53:01.890Z,98591.88
2022-08-03T22:55:29.144Z,98597.14
2022-08-03T22:57:56.458Z,98601.37
2022-08-03T23:00:23.668Z,98598.95
2022-08-03T23:02:52.008Z,98598.00
2022-08-03T23:06:00.649Z,98597.56
2022-08-03T23:08:20.560Z,98602.54
2022-08-03T23:10:48.633Z,98604.27
2022-08-03T23:13:17.922Z,98598.94
2022-08-03T23:15:53.711Z,98598.45
2022-08-03T23:18:21.576Z,98597.73
2022-08-03T23:20:57.843Z,98594.88
2022-08-03T23:23:24.924Z,98604.13
2022-08-03T23:25:51.872Z,98602.02
2022-08-03T23:28:18.822Z,98597.91
2022-08-03T23:30:46.815Z,98594.34
2022-08-03T23:33:15.004Z,98589.38
2022-08-03T23:36:20.106Z,98588.69
2022-08-03T23:38:30.141Z,98589.19
2022-08-03T23:40:58.570Z,98588.82
2022-08-03T23:43:44.397Z,98589.92
2022-08-03T23:46:18.196Z,98584.39
2022-08-03T23:48:44.986Z,98588.79
2022-08-03T23:51:29.462Z,98588.02
2022-08-03T23:54:06.375Z,98584.36
2022-08-03T23:57:00.513Z,98580.99
2022-08-03T23:59:46.609Z,98582.52
